Time;durP1;ratioP1;P1;durP2;ratioP2;P2;SDS_P1;SDS_P2;PMS_P1;PMS_P2;Temp;Humidity;BMP_temperature;BMP_pressure;BME280_temperature;BME280_humidity;BME280_pressure;Samples;Min_cycle;Max_cycle;Signal;HPM_P1;HPM_P2
2022/10/17 00:00:31;;;;;;;5.88;3.08;;;12.10;99.90;;;;;;5093985;28;20460;-47
2022/10/17 00:02:58;;;;;;;6.80;3.22;;;12.10;99.90;;;;;;5091179;28;20076;-47
2022/10/17 00:05:24;;;;;;;8.10;2.95;;;12.20;99.90;;;;;;5091098;28;20127;-47
2022/10/17 00:07:52;;;;;;;3.65;2.58;;;12.20;99.90;;;;;;5091882;28;20068;-47
2022/10/17 00:10:19;;;;;;;;;;;12.20;99.90;;;;;;5083792;28;20063;-47
2022/10/17 00:12:46;;;;;;;5.35;3.15;;;12.30;99.90;;;;;;5099080;28;19951;-47
2022/10/17 00:15:16;;;;;;;6.68;3.20;;;12.30;99.90;;;;;;5111366;28;20079;-48
2022/10/17 00:17:43;;;;;;;7.93;3.22;;;12.30;99.90;;;;;;5093242;28;20067;-48
2022/10/17 00:20:11;;;;;;;4.53;2.38;;;12.30;99.90;;;;;;5091204;28;20036;-47
2022/10/17 00:22:37;;;;;;;8.20;2.63;;;12.30;99.90;;;;;;5090658;28;20080;-48
2022/10/17 00:25:05;;;;;;;9.10;3.45;;;12.30;99.90;;;;;;5094648;28;20159;-47
2022/10/17 00:27:37;;;;;;;6.07;3.00;;;12.30;99.90;;;;;;5091295;28;20032;-48
2022/10/17 00:30:08;;;;;;;15.07;3.28;;;12.30;99.90;;;;;;5072539;28;20517;-47
2022/10/17 00:32:35;;;;;;;13.75;3.40;;;12.40;99.90;;;;;;5090856;22;20075;-49
2022/10/17 00:35:02;;;;;;;;;;;12.40;99.90;;;;;;5096279;28;20047;-47
2022/10/17 00:37:30;;;;;;;4.47;3.15;;;12.40;99.90;;;;;;5087564;28;19965;-50
2022/10/17 00:39:58;;;;;;;6.03;3.05;;;12.30;99.90;;;;;;5088820;28;20084;-49
2022/10/17 00:42:25;;;;;;;;;;;12.30;99.90;;;;;;5102354;28;20592;-49
2022/10/17 00:45:04;;;;;;;6.18;3.40;;;12.20;99.90;;;;;;5095337;28;20384;-49
2022/10/17 00:47:34;;;;;;;9.02;3.65;;;12.20;99.90;;;;;;5071707;28;20105;-50
2022/10/17 00:50:01;;;;;;;6.18;3.35;;;12.20;99.90;;;;;;5076350;28;20039;-50
2022/10/17 00:52:33;;;;;;;6.50;3.30;;;12.10;99.90;;;;;;5084276;28;20040;-51
2022/10/17 00:55:15;;;;;;;8.55;3.22;;;12.20;99.90;;;;;;5086361;28;20130;-49
2022/10/17 00:57:44;;;;;;;6.40;3.03;;;12.10;99.90;;;;;;5103509;28;20086;-50
2022/10/17 01:00:12;;;;;;;5.22;3.40;;;12.10;99.90;;;;;;5109706;28;20114;-49
2022/10/17 01:02:40;;;;;;;12.32;3.60;;;12.10;99.90;;;;;;5095303;28;20112;-50
2022/10/17 01:05:07;;;;;;;7.05;3.30;;;12.10;99.90;;;;;;5113164;28;20082;-49
2022/10/17 01:07:35;;;;;;;6.55;3.42;;;12.10;99.90;;;;;;5113909;28;20097;-51
2022/10/17 01:10:05;;;;;;;7.40;3.35;;;12.00;99.90;;;;;;5088007;28;20046;-51
2022/10/17 01:12:51;;;;;;;5.57;3.28;;;12.00;99.90;;;;;;5104860;28;20066;-49
2022/10/17 01:15:35;;;;;;;6.72;3.40;;;12.10;99.90;;;;;;5112891;28;20040;-49
2022/10/17 01:18:07;;;;;;;7.93;3.42;;;12.10;99.90;;;;;;5113893;28;20044;-49
2022/10/17 01:21:14;;;;;;;10.13;3.03;;;12.00;99.90;;;;;;5090954;28;20127;-49
2022/10/17 01:24:11;;;;;;;8.32;3.17;;;12.00;99.90;;;;;;5082359;28;20122;-51
2022/10/17 01:26:58;;;;;;;10.63;3.15;;;12.00;99.90;;;;;;5079565;28;20412;-49
2022/10/17 01:29:37;;;;;;;5.60;3.28;;;11.90;99.90;;;;;;5105336;28;20040;-49
2022/10/17 01:32:34;;;;;;;6.53;3.20;;;11.90;99.90;;;;;;5090869;28;20139;-49
2022/10/17 01:35:04;;;;;;;8.43;3.72;;;11.90;99.90;;;;;;5094254;28;20047;-49
2022/10/17 01:38:03;;;;;;;4.13;2.45;;;11.80;99.90;;;;;;5094354;28;20044;-49
2022/10/17 01:40:42;;;;;;;8.25;3.05;;;11.80;99.90;;;;;;5084046;28;20046;-50
2022/10/17 01:43:19;;;;;;;9.57;2.97;;;11.80;99.90;;;;;;5068191;28;20097;-52
2022/10/17 01:45:53;;;;;;;8.75;2.95;;;11.80;99.90;;;;;;5114327;28;20036;-49
2022/10/17 01:48:22;;;;;;;5.55;3.20;;;11.80;99.90;;;;;;5096771;28;20051;-51
2022/10/17 01:51:00;;;;;;;7.53;3.05;;;11.70;99.90;;;;;;5088048;28;20496;-50
2022/10/17 01:53:32;;;;;;;4.88;2.88;;;11.70;99.90;;;;;;5094325;28;20044;-49
2022/10/17 01:56:01;;;;;;;7.30;3.00;;;11.60;99.90;;;;;;5088544;28;20093;-51
2022/10/17 01:58:32;;;;;;;6.18;2.70;;;11.70;99.90;;;;;;5095973;28;20052;-49
2022/10/17 02:01:03;;;;;;;4.47;2.95;;;11.60;99.90;;;;;;5091194;28;20105;-49
2022/10/17 02:03:33;;;;;;;5.95;3.13;;;11.60;99.90;;;;;;5075600;28;20043;-49
2022/10/17 02:06:00;;;;;;;6.68;3.20;;;11.60;99.90;;;;;;5075215;28;20679;-50
2022/10/17 02:08:47;;;;;;;5.45;2.85;;;11.60;99.90;;;;;;5075951;28;20044;-49
2022/10/17 02:11:23;;;;;;;6.07;3.15;;;11.60;99.90;;;;;;5068647;28;20044;-48
2022/10/17 02:14:13;;;;;;;5.45;3.20;;;11.60;99.90;;;;;;5074841;28;20097;-49
2022/10/17 02:17:04;;;;;;;6.95;3.28;;;11.60;99.90;;;;;;5092856;28;20484;-49
2022/10/17 02:19:39;;;;;;;9.35;3.53;;;11.50;99.90;;;;;;5093424;28;20040;-50
2022/10/17 02:22:21;;;;;;;6.15;3.20;;;11.50;99.90;;;;;;5075405;28;20074;-50
2022/10/17 02:25:17;;;;;;;6.05;2.70;;;11.50;99.90;;;;;;5075173;28;20114;-50
2022/10/17 02:28:01;;;;;;;5.65;2.97;;;11.50;99.90;;;;;;5093786;28;20074;-49
2022/10/17 02:31:01;;;;;;;7.70;3.45;;;11.40;99.90;;;;;;5082745;28;20042;-51
2022/10/17 02:33:32;;;;;;;7.07;3.20;;;11.40;99.90;;;;;;5093008;28;20390;-49
2022/10/17 02:36:03;;;;;;;6.45;3.30;;;11.40;99.90;;;;;;5092745;28;20098;-49
2022/10/17 02:38:33;;;;;;;9.63;3.47;;;11.30;99.90;;;;;;5095383;28;20082;-49
2022/10/17 02:41:00;;;;;;;6.53;3.33;;;11.30;99.90;;;;;;5094848;28;20376;-50
2022/10/17 02:43:28;;;;;;;5.47;3.50;;;11.30;99.90;;;;;;5095381;28;20044;-50
2022/10/17 02:45:57;;;;;;;8.25;3.58;;;11.30;99.90;;;;;;5093540;28;20503;-50
2022/10/17 02:48:29;;;;;;;8.15;3.33;;;11.30;99.90;;;;;;5095243;28;20562;-49
2022/10/17 02:51:02;;;;;;;5.53;3.38;;;11.20;99.90;;;;;;5095248;28;20401;-49
2022/10/17 02:53:35;;;;;;;8.45;3.83;;;11.30;99.90;;;;;;5095159;28;20128;-50
2022/10/17 02:56:09;;;;;;;7.70;3.90;;;11.30;99.90;;;;;;5074853;28;20134;-49
2022/10/17 02:58:38;;;;;;;5.32;3.58;;;11.20;99.90;;;;;;5091494;28;20097;-49
2022/10/17 03:01:05;;;;;;;5.20;3.10;;;11.20;99.90;;;;;;5093711;27;20036;-50
2022/10/17 03:03:32;;;;;;;4.78;3.10;;;11.30;99.90;;;;;;5092682;28;20040;-50
2022/10/17 03:06:00;;;;;;;5.80;3.17;;;11.20;99.90;;;;;;5105109;28;20396;-50
2022/10/17 03:08:27;;;;;;;6.38;3.58;;;11.20;99.90;;;;;;5106635;28;20108;-49
2022/10/17 03:10:55;;;;;;;8.02;3.58;;;11.20;99.90;;;;;;5092687;28;20500;-49
2022/10/17 03:13:23;;;;;;;;;;;11.20;99.90;;;;;;5095428;28;20139;-49
2022/10/17 03:15:50;;;;;;;10.15;3.60;;;11.20;99.90;;;;;;5094681;28;19919;-50
2022/10/17 03:18:16;;;;;;;8.00;3.45;;;11.20;99.90;;;;;;5093466;28;20471;-49
2022/10/17 03:20:45;;;;;;;5.95;3.42;;;11.20;99.90;;;;;;5088296;28;20411;-49
2022/10/17 03:23:11;;;;;;;11.27;3.60;;;11.20;99.90;;;;;;5094089;28;20416;-51
2022/10/17 03:25:39;;;;;;;;;;;11.20;99.90;;;;;;5094185;28;20684;-49
2022/10/17 03:28:06;;;;;;;5.88;3.30;;;11.20;99.90;;;;;;5106199;28;19934;-50
2022/10/17 03:30:33;;;;;;;;;;;11.10;99.90;;;;;;5094572;28;20431;-50
2022/10/17 03:33:01;;;;;;;5.97;3.28;;;11.10;99.90;;;;;;5093122;28;20288;-50
2022/10/17 03:35:27;;;;;;;11.02;4.10;;;11.50;99.90;;;;;;5090892;28;20541;-49
2022/10/17 03:37:55;;;;;;;6.95;3.00;;;11.00;99.90;;;;;;5094028;28;20040;-49
2022/10/17 03:40:24;;;;;;;9.32;3.40;;;11.10;99.90;;;;;;5094299;28;20589;-49
2022/10/17 03:42:51;;;;;;;;;;;11.10;99.90;;;;;;5090915;28;20047;-50
2022/10/17 03:45:18;;;;;;;6.70;3.25;;;11.00;99.90;;;;;;5094873;28;19969;-49
2022/10/17 03:47:46;;;;;;;7.22;3.45;;;11.00;99.90;;;;;;5094395;28;20104;-49
2022/10/17 03:50:14;;;;;;;6.57;3.50;;;11.00;99.90;;;;;;5093551;28;20040;-49
2022/10/17 03:52:46;;;;;;;8.18;3.20;;;11.00;99.90;;;;;;5092709;28;20503;-49
2022/10/17 03:55:13;;;;;;;8.30;3.40;;;11.00;99.90;;;;;;5092922;28;20365;-49
2022/10/17 03:57:40;;;;;;;6.85;3.20;;;11.00;99.90;;;;;;5111696;28;20043;-49
2022/10/17 04:00:12;;;;;;;10.65;3.42;;;11.00;99.90;;;;;;5088359;28;20059;-49
2022/10/17 04:02:43;;;;;;;5.50;3.30;;;11.00;99.90;;;;;;5097975;28;20101;-49
2022/10/17 04:05:16;;;;;;;7.20;3.00;;;11.00;99.90;;;;;;5074477;28;20043;-50
2022/10/17 04:07:43;;;;;;;13.55;3.97;;;11.00;99.90;;;;;;5093943;28;20051;-50
2022/10/17 04:10:12;;;;;;;7.00;3.42;;;10.90;99.90;;;;;;5093468;28;20461;-49
2022/10/17 04:12:38;;;;;;;5.72;3.40;;;10.90;99.90;;;;;;5093646;28;20426;-50
2022/10/17 04:15:06;;;;;;;6.70;3.50;;;10.90;99.90;;;;;;5083408;28;20070;-49
2022/10/17 04:17:34;;;;;;;9.85;3.50;;;10.90;99.90;;;;;;5090588;28;20050;-50
2022/10/17 04:20:05;;;;;;;6.68;3.38;;;10.90;99.90;;;;;;5087107;28;20031;-50
2022/10/17 04:22:31;;;;;;;;;;;10.90;99.90;;;;;;5111886;28;20070;-49
2022/10/17 04:24:59;;;;;;;4.55;3.00;;;10.80;99.90;;;;;;5092575;28;19927;-50
2022/10/17 04:27:31;;;;;;;7.93;3.28;;;10.80;99.90;;;;;;5092046;28;20031;-50
2022/10/17 04:29:58;;;;;;;7.32;3.22;;;10.80;99.90;;;;;;5095932;28;20039;-50
2022/10/17 04:32:25;;;;;;;4.78;3.13;;;10.80;99.90;;;;;;5101448;28;20407;-50
2022/10/17 04:35:16;;;;;;;6.68;3.40;;;10.80;99.90;;;;;;5096110;28;20055;-51
2022/10/17 04:37:47;;;;;;;7.22;3.80;;;10.70;99.90;;;;;;5096615;28;20067;-50
2022/10/17 04:40:17;;;;;;;10.75;4.47;;;10.70;99.90;;;;;;5092786;28;20051;-49
2022/10/17 04:42:44;;;;;;;19.13;4.30;;;10.60;99.90;;;;;;5091366;28;20071;-50
2022/10/17 04:45:14;;;;;;;7.35;3.50;;;10.50;99.90;;;;;;5074911;28;20547;-52
2022/10/17 04:47:41;;;;;;;8.73;3.42;;;10.50;99.90;;;;;;5072822;28;20037;-49
2022/10/17 04:50:08;;;;;;;7.60;3.58;;;10.50;99.90;;;;;;5073093;28;20051;-48
2022/10/17 04:52:38;;;;;;;5.78;3.20;;;10.60;99.90;;;;;;5082267;28;20047;-47
2022/10/17 04:55:07;;;;;;;6.97;3.50;;;10.60;99.90;;;;;;5084184;28;20054;-51
2022/10/17 04:57:35;;;;;;;6.80;3.10;;;10.60;99.90;;;;;;5093382;28;20075;-49
2022/10/17 05:00:09;;;;;;;5.88;3.33;;;10.70;99.90;;;;;;5088791;28;20134;-49
2022/10/17 05:03:05;;;;;;;10.27;3.17;;;10.80;99.90;;;;;;5085250;28;20403;-50
2022/10/17 05:05:32;;;;;;;5.32;3.00;;;10.80;99.90;;;;;;5090820;28;20043;-49
2022/10/17 05:08:01;;;;;;;5.07;2.90;;;10.80;99.90;;;;;;5092164;28;20477;-48
2022/10/17 05:10:36;;;;;;;6.93;3.63;;;10.90;99.90;;;;;;5091201;28;20556;-49
2022/10/17 05:13:04;;;;;;;4.88;2.90;;;10.90;99.90;;;;;;5092707;28;20047;-49
2022/10/17 05:15:32;;;;;;;7.38;3.17;;;10.80;99.90;;;;;;5092349;28;20044;-51
2022/10/17 05:18:00;;;;;;;6.53;3.13;;;10.80;99.90;;;;;;5088466;28;20028;-49
2022/10/17 05:20:28;;;;;;;7.35;3.00;;;10.70;99.90;;;;;;5079804;28;20069;-49
2022/10/17 05:22:58;;;;;;;7.40;3.67;;;10.70;99.90;;;;;;5106462;28;20051;-51
2022/10/17 05:25:29;;;;;;;8.13;3.50;;;10.70;99.90;;;;;;5092672;28;20036;-51
2022/10/17 05:27:56;;;;;;;5.70;3.03;;;10.70;99.90;;;;;;5085878;28;20048;-50
2022/10/17 05:30:23;;;;;;;9.00;2.85;;;10.60;99.90;;;;;;5091591;28;20051;-50
2022/10/17 05:32:55;;;;;;;7.47;3.83;;;10.60;99.90;;;;;;5089285;28;20043;-49
2022/10/17 05:35:22;;;;;;;6.03;3.38;;;10.60;99.90;;;;;;5090756;28;20052;-49
2022/10/17 05:37:48;;;;;;;8.20;3.13;;;10.60;99.90;;;;;;5087934;28;20131;-51
2022/10/17 05:40:17;;;;;;;8.45;3.70;;;10.60;99.90;;;;;;5074191;28;20040;-50
2022/10/17 05:42:48;;;;;;;13.10;3.90;;;10.60;99.90;;;;;;5071845;28;20567;-49
2022/10/17 05:45:17;;;;;;;6.10;3.15;;;10.50;99.90;;;;;;5090122;28;20039;-49
2022/10/17 05:47:45;;;;;;;6.95;3.25;;;10.50;99.90;;;;;;5090551;28;20076;-50
2022/10/17 05:50:12;;;;;;;13.65;4.03;;;10.50;99.90;;;;;;5076220;28;20130;-50
2022/10/17 05:53:00;;;;;;;9.02;3.65;;;10.50;99.90;;;;;;5076420;28;20037;-51
2022/10/17 05:55:27;;;;;;;7.05;3.72;;;10.50;99.90;;;;;;5075397;28;20060;-51
2022/10/17 05:57:54;;;;;;;6.80;3.67;;;10.50;99.90;;;;;;5076074;28;20412;-49
2022/10/17 06:00:23;;;;;;;7.15;3.60;;;10.50;99.90;;;;;;5078548;28;20089;-50
2022/10/17 06:02:56;;;;;;;9.50;4.28;;;10.50;99.90;;;;;;5076079;28;20064;-50
2022/10/17 06:05:23;;;;;;;7.93;3.67;;;10.50;99.90;;;;;;5075491;28;20044;-50
2022/10/17 06:07:51;;;;;;;10.75;3.83;;;10.50;99.90;;;;;;5075861;28;20048;-51
2022/10/17 06:10:19;;;;;;;9.35;3.30;;;10.60;99.90;;;;;;5082729;28;20051;-49
2022/10/17 06:12:47;;;;;;;11.20;3.90;;;10.60;99.90;;;;;;5096007;28;20414;-49
2022/10/17 06:15:14;;;;;;;5.72;3.47;;;10.60;99.90;;;;;;5095891;28;20067;-50
2022/10/17 06:17:45;;;;;;;6.90;3.75;;;10.60;99.90;;;;;;5091667;28;20047;-51
2022/10/17 06:20:13;;;;;;;5.95;3.50;;;10.70;99.90;;;;;;5079493;28;20044;-52
2022/10/17 06:22:39;;;;;;;7.18;3.67;;;10.70;99.90;;;;;;5093601;28;20040;-51
2022/10/17 06:25:12;;;;;;;9.43;4.30;;;10.70;99.90;;;;;;5074070;28;20048;-52
2022/10/17 06:27:39;;;;;;;11.43;3.88;;;10.80;99.90;;;;;;5092998;28;20052;-51
2022/10/17 06:30:07;;;;;;;10.55;3.70;;;10.80;99.90;;;;;;5075089;28;20070;-50
2022/10/17 06:32:34;;;;;;;10.73;3.83;;;10.80;99.90;;;;;;5074438;28;20047;-47
2022/10/17 06:35:01;;;;;;;8.30;3.83;;;10.90;99.90;;;;;;5079406;22;20045;-47
2022/10/17 06:37:32;;;;;;;7.50;3.78;;;10.90;99.90;;;;;;5062087;28;20569;-47
2022/10/17 06:40:07;;;;;;;9.35;3.35;;;10.90;99.90;;;;;;5055907;28;20047;-46
2022/10/17 06:42:35;;;;;;;10.40;4.60;;;11.00;99.90;;;;;;5065809;28;20048;-47
2022/10/17 06:45:21;;;;;;;8.90;4.07;;;11.00;99.90;;;;;;5053003;28;20072;-48
2022/10/17 06:48:08;;;;;;;12.73;3.72;;;11.10;99.90;;;;;;5046164;28;20059;-47
2022/10/17 06:50:58;;;;;;;16.20;4.43;;;11.20;99.90;;;;;;5053290;28;20052;-49
2022/10/17 06:53:28;;;;;;;10.23;3.35;;;11.30;99.90;;;;;;5053229;28;20048;-50
2022/10/17 06:56:13;;;;;;;9.98;3.75;;;11.30;99.90;;;;;;5042091;28;20053;-49
2022/10/17 06:58:57;;;;;;;7.18;3.67;;;11.30;99.90;;;;;;5030891;28;20059;-50
2022/10/17 07:01:33;;;;;;;9.00;3.72;;;11.40;99.90;;;;;;5031590;28;20049;-46
2022/10/17 07:04:02;;;;;;;6.72;3.22;;;11.40;99.90;;;;;;5031150;28;20054;-47
2022/10/17 07:06:30;;;;;;;7.65;3.40;;;11.40;99.90;;;;;;5064226;28;20076;-47
2022/10/17 07:09:05;;;;;;;9.43;3.75;;;11.50;99.90;;;;;;5047916;28;20060;-47
2022/10/17 07:11:34;;;;;;;7.32;3.75;;;11.60;99.90;;;;;;5046734;28;20054;-47
2022/10/17 07:14:02;;;;;;;8.55;3.80;;;11.80;99.90;;;;;;5033044;28;20092;-47
2022/10/17 07:16:29;;;;;;;8.75;3.40;;;11.80;99.90;;;;;;5047204;28;20091;-47
2022/10/17 07:19:03;;;;;;;19.30;3.80;;;11.90;99.90;;;;;;5049502;28;20041;-48
2022/10/17 07:21:35;;;;;;;5.93;3.90;;;11.90;99.90;;;;;;5038459;28;20049;-48
2022/10/17 07:24:06;;;;;;;9.32;3.78;;;12.00;99.90;;;;;;5030987;28;20042;-46
2022/10/17 07:26:33;;;;;;;7.72;3.28;;;12.10;99.90;;;;;;5031326;28;20141;-47
2022/10/17 07:29:00;;;;;;;10.00;3.75;;;12.20;99.90;;;;;;5036789;28;20069;-47
2022/10/17 07:31:47;;;;;;;11.73;3.47;;;12.30;99.90;;;;;;5032284;28;20056;-47
2022/10/17 07:34:14;;;;;;;9.82;3.17;;;12.40;99.90;;;;;;5031679;28;20087;-47
2022/10/17 07:36:43;;;;;;;6.00;3.25;;;12.60;99.90;;;;;;5050786;28;20064;-47
2022/10/17 07:39:12;;;;;;;7.57;3.33;;;12.60;99.90;;;;;;5050687;28;20080;-47
2022/10/17 07:41:39;;;;;;;6.20;3.38;;;12.70;99.90;;;;;;5050868;28;20107;-47
2022/10/17 07:44:06;;;;;;;7.43;3.50;;;12.80;99.90;;;;;;5040784;28;20045;-49
2022/10/17 07:46:39;;;;;;;5.85;3.33;;;12.90;99.90;;;;;;5050619;28;20052;-47
2022/10/17 07:49:06;;;;;;;8.00;3.17;;;13.00;99.90;;;;;;5050100;28;20051;-47
2022/10/17 07:51:33;;;;;;;10.63;3.17;;;13.00;99.90;;;;;;5049995;28;20095;-47
2022/10/17 07:53:59;;;;;;;15.00;3.95;;;13.10;99.90;;;;;;5043245;28;20049;-47
2022/10/17 07:56:28;;;;;;;9.20;3.25;;;13.20;99.90;;;;;;5051809;28;20442;-47
2022/10/17 07:58:56;;;;;;;7.43;3.00;;;13.20;99.90;;;;;;5050254;28;20049;-49
2022/10/17 08:01:27;;;;;;;6.20;2.97;;;13.30;99.90;;;;;;5034755;28;20040;-50
2022/10/17 08:03:54;;;;;;;6.88;3.50;;;13.30;99.90;;;;;;5051157;28;20134;-47
2022/10/17 08:06:21;;;;;;;8.85;3.65;;;13.20;99.90;;;;;;5051548;28;20069;-47
2022/10/17 08:08:47;;;;;;;5.63;3.30;;;13.40;99.90;;;;;;5050631;28;20114;-48
2022/10/17 08:11:14;;;;;;;5.47;2.58;;;13.40;99.90;;;;;;5051288;28;20072;-47
2022/10/17 08:13:41;;;;;;;7.47;3.38;;;13.50;99.90;;;;;;5050382;28;20633;-50
2022/10/17 08:16:10;;;;;;;10.70;3.17;;;13.50;99.90;;;;;;5049699;28;20056;-50
2022/10/17 08:18:39;;;;;;;10.95;3.10;;;13.70;99.90;;;;;;5031499;28;20053;-48
2022/10/17 08:21:07;;;;;;;7.20;3.55;;;13.80;99.90;;;;;;5047579;28;20721;-47
2022/10/17 08:23:35;;;;;;;7.68;3.15;;;13.90;99.90;;;;;;5050708;28;20058;-48
2022/10/17 08:26:04;;;;;;;6.70;3.08;;;14.00;99.90;;;;;;5049975;28;20071;-48
2022/10/17 08:28:34;;;;;;;7.18;3.20;;;14.10;99.90;;;;;;5043115;28;20468;-50
2022/10/17 08:31:04;;;;;;;7.70;2.83;;;14.20;99.90;;;;;;5040618;28;20042;-47
2022/10/17 08:33:32;;;;;;;7.93;3.10;;;14.20;99.90;;;;;;5030410;28;20041;-47
2022/10/17 08:36:00;;;;;;;6.90;2.80;;;14.20;99.90;;;;;;5030208;28;20077;-48
2022/10/17 08:38:31;;;;;;;6.32;3.22;;;14.30;99.90;;;;;;5033373;28;20053;-50
2022/10/17 08:41:26;;;;;;;12.32;3.10;;;14.40;99.90;;;;;;5032017;28;20102;-47
2022/10/17 08:44:26;;;;;;;4.45;2.83;;;14.50;99.90;;;;;;5030033;28;20049;-47
2022/10/17 08:46:57;;;;;;;7.00;3.78;;;14.50;99.90;;;;;;5033305;28;20759;-48
2022/10/17 08:49:31;;;;;;;11.77;3.50;;;14.70;99.90;;;;;;5031223;28;20390;-47
2022/10/17 08:52:06;;;;;;;6.03;3.33;;;14.70;99.90;;;;;;5030888;28;20076;-47
2022/10/17 08:54:45;;;;;;;7.30;3.95;;;14.90;99.90;;;;;;5031719;28;20446;-47
2022/10/17 08:57:14;;;;;;;6.90;3.65;;;15.00;99.90;;;;;;5050868;28;20073;-48
2022/10/17 08:59:43;;;;;;;8.15;3.75;;;15.30;99.90;;;;;;5034675;28;20041;-47
2022/10/17 09:02:56;;;;;;;6.93;3.05;;;15.50;99.90;;;;;;5031301;28;20045;-49
2022/10/17 09:05:50;;;;;;;7.22;3.30;;;15.60;99.90;;;;;;5041128;28;20124;-47
2022/10/17 09:08:45;;;;;;;8.73;3.85;;;15.80;99.90;;;;;;5050980;28;20444;-47
2022/10/17 09:11:42;;;;;;;4.90;3.45;;;15.90;99.90;;;;;;5044991;28;20116;-47
2022/10/17 09:14:34;;;;;;;8.00;3.78;;;16.10;99.90;;;;;;5038753;28;20486;-49
2022/10/17 09:17:22;;;;;;;7.65;4.05;;;16.20;99.90;;;;;;5030933;28;20073;-47
2022/10/17 09:19:58;;;;;;;11.15;4.15;;;16.30;99.90;;;;;;5050709;28;20103;-47
2022/10/17 09:22:31;;;;;;;6.47;3.53;;;16.40;99.90;;;;;;5051826;28;20096;-48
2022/10/17 09:25:05;;;;;;;11.25;3.72;;;16.50;99.90;;;;;;5054541;28;20045;-47
2022/10/17 09:27:45;;;;;;;5.82;3.35;;;16.60;99.90;;;;;;5047049;28;20150;-48
2022/10/17 09:30:38;;;;;;;7.78;3.78;;;16.80;99.90;;;;;;5054392;28;20115;-47
2022/10/17 09:33:20;;;;;;;7.03;4.03;;;17.00;99.90;;;;;;5054624;28;20044;-48
2022/10/17 09:36:19;;;;;;;6.68;3.80;;;17.20;99.90;;;;;;5053838;28;20402;-47
2022/10/17 09:39:14;;;;;;;8.98;3.42;;;17.30;99.90;;;;;;5048513;28;20033;-47
2022/10/17 09:41:52;;;;;;;10.57;5.45;;;17.50;99.90;;;;;;5039994;28;20081;-48
2022/10/17 09:44:34;;;;;;;11.77;4.32;;;17.70;99.90;;;;;;5033477;28;20081;-48
2022/10/17 09:47:28;;;;;;;6.90;4.20;;;17.70;99.90;;;;;;5050149;28;20099;-49
2022/10/17 09:49:55;;;;;;;4.90;3.35;;;17.80;99.90;;;;;;5054335;28;20099;-47
2022/10/17 09:52:39;;;;;;;7.82;3.50;;;17.90;99.90;;;;;;5054420;28;20090;-47
2022/10/17 09:55:30;;;;;;;5.90;3.92;;;17.90;99.90;;;;;;5053272;28;20041;-50
2022/10/17 09:57:59;;;;;;;4.70;3.45;;;18.00;99.90;;;;;;5045705;28;20095;-47
2022/10/17 10:00:32;;;;;;;5.20;3.60;;;18.10;99.90;;;;;;5045390;28;20053;-48
2022/10/17 10:03:13;;;;;;;7.57;3.78;;;18.20;99.90;;;;;;5053852;28;20401;-47
2022/10/17 10:05:41;;;;;;;5.93;3.97;;;18.30;99.90;;;;;;5052452;28;20087;-50
2022/10/17 10:08:16;;;;;;;6.55;3.65;;;18.30;99.90;;;;;;5053880;28;20502;-47
2022/10/17 10:10:44;;;;;;;8.25;3.50;;;18.50;99.90;;;;;;5046370;28;20069;-47
2022/10/17 10:13:13;;;;;;;7.57;3.40;;;18.60;99.90;;;;;;5033701;28;20073;-47
2022/10/17 10:15:49;;;;;;;3.92;3.10;;;18.70;99.90;;;;;;5033400;28;20067;-46
2022/10/17 10:18:25;;;;;;;5.82;3.63;;;18.60;99.90;;;;;;5033417;28;20495;-47
2022/10/17 10:21:12;;;;;;;19.23;4.35;;;18.80;99.90;;;;;;5033749;28;20111;-51
2022/10/17 10:23:44;;;;;;;7.35;3.45;;;18.90;99.90;;;;;;5033098;28;20041;-49
2022/10/17 10:26:21;;;;;;;9.13;3.90;;;19.00;99.90;;;;;;5033833;28;20084;-48
2022/10/17 10:29:05;;;;;;;4.38;2.90;;;19.10;99.90;;;;;;5047769;28;20053;-47
2022/10/17 10:31:37;;;;;;;5.90;3.20;;;19.10;99.90;;;;;;5052616;28;20041;-47
2022/10/17 10:34:26;;;;;;;7.13;3.35;;;19.20;99.90;;;;;;5051212;28;20494;-48
2022/10/17 10:37:00;;;;;;;8.30;3.22;;;19.30;99.90;;;;;;5053496;28;20045;-48
2022/10/17 10:39:46;;;;;;;7.82;3.67;;;19.20;99.90;;;;;;5050357;28;20045;-47
2022/10/17 10:42:46;;;;;;;4.53;3.25;;;19.30;99.90;;;;;;5053423;28;20049;-48
2022/10/17 10:45:23;;;;;;;5.57;2.92;;;19.30;99.90;;;;;;5052864;28;20092;-48
2022/10/17 10:48:20;;;;;;;7.50;3.70;;;19.40;99.90;;;;;;5035191;28;20417;-47
2022/10/17 10:51:05;;;;;;;8.23;3.40;;;19.50;99.90;;;;;;5033108;28;20533;-50
2022/10/17 10:53:49;;;;;;;5.75;3.47;;;19.50;99.90;;;;;;5032864;28;20541;-51
2022/10/17 10:56:40;;;;;;;4.60;2.97;;;19.60;99.90;;;;;;5041899;28;20059;-48
2022/10/17 10:59:19;;;;;;;4.57;3.22;;;19.70;99.90;;;;;;5049867;28;20413;-47
2022/10/17 11:02:08;;;;;;;5.65;3.35;;;19.70;99.90;;;;;;5050710;28;20127;-47
2022/10/17 11:04:46;;;;;;;5.40;3.05;;;19.70;99.90;;;;;;5052550;28;20049;-47
2022/10/17 11:07:35;;;;;;;8.63;3.75;;;19.60;99.90;;;;;;5053118;28;20041;-48
2022/10/17 11:10:18;;;;;;;5.50;3.10;;;19.60;99.90;;;;;;5049992;28;20069;-47
2022/10/17 11:12:56;;;;;;;5.50;2.95;;;19.70;99.90;;;;;;5051547;28;20037;-51
2022/10/17 11:15:28;;;;;;;4.72;3.03;;;19.90;99.90;;;;;;5051819;28;20460;-49
2022/10/17 11:18:03;;;;;;;7.80;3.40;;;20.10;99.90;;;;;;5052579;28;20079;-48
2022/10/17 11:20:39;;;;;;;5.72;2.95;;;20.20;99.90;;;;;;5052642;28;20068;-47
2022/10/17 11:23:28;;;;;;;5.88;3.42;;;20.30;99.90;;;;;;5051927;28;20041;-47
2022/10/17 11:25:59;;;;;;;10.70;3.08;;;20.30;99.90;;;;;;5040722;28;20049;-49
2022/10/17 11:28:25;;;;;;;6.40;2.97;;;20.40;99.90;;;;;;5034706;28;20095;-49
2022/10/17 11:31:32;;;;;;;5.18;3.40;;;20.50;99.90;;;;;;5050863;28;20036;-47
2022/10/17 11:34:04;;;;;;;4.10;3.33;;;20.60;99.90;;;;;;4990062;28;20141;-47
2022/10/17 11:36:36;;;;;;;7.85;3.72;;;20.50;99.90;;;;;;5044765;28;20128;-47
2022/10/17 11:39:30;;;;;;;5.88;3.20;;;20.40;99.90;;;;;;5042403;28;20042;-48
2022/10/17 11:42:05;;;;;;;6.18;3.40;;;20.40;99.90;;;;;;5047599;28;20045;-48
2022/10/17 11:44:39;;;;;;;6.10;3.25;;;20.30;99.90;;;;;;5051295;28;20651;-47
2022/10/17 11:47:12;;;;;;;5.35;3.53;;;20.30;99.90;;;;;;5050973;28;20065;-48
2022/10/17 11:49:50;;;;;;;8.55;3.60;;;20.30;99.90;;;;;;5031784;28;20119;-47
2022/10/17 11:52:38;;;;;;;7.50;3.70;;;20.40;99.90;;;;;;5032309;28;20200;-49
2022/10/17 11:55:28;;;;;;;9.27;3.92;;;20.40;99.90;;;;;;5039193;28;20494;-47
2022/10/17 11:58:15;;;;;;;6.50;3.65;;;20.50;99.90;;;;;;5051635;28;20045;-48
2022/10/17 12:00:42;;;;;;;5.15;3.20;;;20.60;99.90;;;;;;5051886;28;20049;-48
2022/10/17 12:03:24;;;;;;;5.05;3.30;;;20.60;99.90;;;;;;5049276;28;20513;-47
2022/10/17 12:06:28;;;;;;;5.15;3.25;;;20.70;99.90;;;;;;5031625;28;20053;-48
2022/10/17 12:09:16;;;;;;;8.05;3.40;;;20.70;99.90;;;;;;5031893;28;20047;-47
2022/10/17 12:12:09;;;;;;;5.68;3.20;;;20.80;99.90;;;;;;5041214;28;20565;-47
2022/10/17 12:14:45;;;;;;;5.70;3.47;;;20.70;99.90;;;;;;5049105;28;20547;-48
2022/10/17 12:17:31;;;;;;;6.10;3.42;;;20.80;99.90;;;;;;5051726;28;20099;-47
2022/10/17 12:20:17;;;;;;;5.63;3.30;;;20.90;99.90;;;;;;5050996;28;20045;-47
2022/10/17 12:22:49;;;;;;;4.70;3.08;;;20.90;99.90;;;;;;5036971;28;20073;-49
2022/10/17 12:25:29;;;;;;;5.10;3.53;;;20.90;99.90;;;;;;5031022;28;20139;-47
2022/10/17 12:28:05;;;;;;;10.75;3.70;;;20.90;99.90;;;;;;5035641;28;20486;-50
2022/10/17 12:30:33;;;;;;;6.13;3.30;;;21.00;99.90;;;;;;5039579;28;20498;-47
2022/10/17 12:33:08;;;;;;;6.85;3.70;;;21.00;99.90;;;;;;5031149;28;20129;-47
2022/10/17 12:36:17;;;;;;;6.13;3.30;;;21.10;99.90;;;;;;5048511;28;20569;-47
2022/10/17 12:38:46;;;;;;;7.13;3.92;;;21.10;99.90;;;;;;5049678;28;20593;-48
2022/10/17 12:41:36;;;;;;;8.85;3.25;;;21.20;99.90;;;;;;5051281;28;20131;-48
2022/10/17 12:44:26;;;;;;;4.05;2.78;;;21.30;99.90;;;;;;5057969;28;20116;-49
2022/10/17 12:47:27;;;;;;;7.03;3.17;;;21.50;99.90;;;;;;5061306;28;20722;-48
2022/10/17 12:49:54;;;;;;;6.50;3.50;;;21.50;99.90;;;;;;5063581;28;20060;-54
2022/10/17 12:52:31;;;;;;;5.75;3.33;;;21.50;99.90;;;;;;5071408;28;20082;-48
2022/10/17 12:55:03;;;;;;;3.90;2.78;;;21.50;99.90;;;;;;5068590;28;20465;-50
2022/10/17 12:58:02;;;;;;;5.15;3.13;;;21.50;99.90;;;;;;5053716;28;20098;-49
2022/10/17 13:00:46;;;;;;;5.93;3.42;;;21.50;99.90;;;;;;5055159;28;20098;-48
2022/10/17 13:03:39;;;;;;;4.97;3.15;;;21.60;99.90;;;;;;5054715;28;20076;-47
2022/10/17 13:06:06;;;;;;;3.83;2.60;;;21.50;99.90;;;;;;5070858;28;20468;-51
2022/10/17 13:08:38;;;;;;;;;;;21.60;99.90;;;;;;5075646;28;20064;-50
2022/10/17 13:11:06;;;;;;;6.32;3.58;;;21.60;99.90;;;;;;5073826;28;20407;-49
2022/10/17 13:13:47;;;;;;;5.28;3.30;;;21.60;99.90;;;;;;5054537;28;20056;-48
2022/10/17 13:16:27;;;;;;;6.50;3.25;;;21.60;99.90;;;;;;5054958;28;20052;-48
2022/10/17 13:18:55;;;;;;;5.35;3.05;;;21.60;99.90;;;;;;5059085;28;20421;-48
2022/10/17 13:21:22;;;;;;;5.55;3.17;;;21.60;99.90;;;;;;5074437;28;20099;-48
2022/10/17 13:23:51;;;;;;;;;;;21.70;99.90;;;;;;5074494;28;20049;-48
2022/10/17 13:26:21;;;;;;;5.00;3.40;;;21.70;99.90;;;;;;5071430;28;19956;-50